Time;durP1;ratioP1;P1;durP2;ratioP2;P2;SDS_P1;SDS_P2;PMS_P1;PMS_P2;Temp;Humidity;BMP_temperature;BMP_pressure;BME280_temperature;BME280_humidity;BME280_pressure;Samples;Min_cycle;Max_cycle;Signal;HPM_P1;HPM_P2
2022/08/21 00:00:52;;;;;;;7.93;7.30;;;19.00;99.90;;;;;;5067959;28;20197;-67
2022/08/21 00:03:18;;;;;;;11.40;7.60;;;19.00;99.90;;;;;;5061100;28;20596;-67
2022/08/21 00:05:49;;;;;;;8.67;7.87;;;19.00;99.90;;;;;;5067717;28;20313;-67
2022/08/21 00:08:15;;;;;;;7.57;6.73;;;18.90;99.90;;;;;;5060282;28;20269;-67
2022/08/21 00:10:42;;;;;;;7.30;6.67;;;18.90;99.90;;;;;;5048338;28;20202;-67
2022/08/21 00:13:08;;;;;;;7.47;6.83;;;18.80;99.90;;;;;;5052171;28;20223;-68
2022/08/21 00:15:35;;;;;;;7.77;7.00;;;18.80;99.90;;;;;;5060975;28;20187;-71
2022/08/21 00:18:02;;;;;;;7.80;7.10;;;18.80;99.90;;;;;;5045974;28;20205;-68
2022/08/21 00:20:27;;;;;;;8.27;7.53;;;18.80;99.90;;;;;;5066231;28;20286;-67
2022/08/21 00:22:53;;;;;;;9.50;6.70;;;18.70;99.90;;;;;;5063956;28;20234;-68
2022/08/21 00:25:20;;;;;;;8.40;7.70;;;18.70;99.90;;;;;;5067623;28;20243;-68
2022/08/21 00:27:46;;;;;;;7.60;7.00;;;18.70;99.90;;;;;;5046117;28;20198;-68
2022/08/21 00:30:13;;;;;;;9.13;7.57;;;18.60;99.90;;;;;;5067067;28;20190;-67
2022/08/21 00:32:40;;;;;;;8.73;8.03;;;18.60;99.90;;;;;;5045969;28;20217;-67
2022/08/21 00:35:11;;;;;;;8.90;8.10;;;18.60;99.90;;;;;;5067254;28;20606;-68
2022/08/21 00:37:37;;;;;;;9.30;8.40;;;18.60;99.90;;;;;;5058095;28;20208;-67
2022/08/21 00:40:04;;;;;;;8.20;7.40;;;18.60;99.90;;;;;;5052185;28;20558;-67
2022/08/21 00:42:30;;;;;;;9.30;8.47;;;18.50;99.90;;;;;;5068913;28;20212;-67
2022/08/21 00:44:56;;;;;;;7.90;7.30;;;18.50;99.90;;;;;;5071559;28;20176;-67
2022/08/21 00:47:21;;;;;;;10.90;8.13;;;18.50;99.90;;;;;;5069458;28;20188;-67
2022/08/21 00:49:47;;;;;;;10.17;9.07;;;18.50;99.90;;;;;;5071385;28;20709;-67
2022/08/21 00:52:19;;;;;;;9.33;8.37;;;18.50;99.90;;;;;;5050271;28;20695;-67
2022/08/21 00:54:46;;;;;;;9.07;8.23;;;18.40;99.90;;;;;;5051731;28;20193;-67
2022/08/21 00:57:23;;;;;;;9.30;8.57;;;18.40;99.90;;;;;;5068675;28;20190;-67
2022/08/21 00:59:53;;;;;;;9.47;8.67;;;18.40;99.90;;;;;;5071239;28;20227;-67
2022/08/21 01:02:20;;;;;;;12.40;9.83;;;18.40;99.90;;;;;;5069306;28;20724;-66
2022/08/21 01:04:46;;;;;;;12.57;8.90;;;18.40;99.90;;;;;;5071283;28;20264;-67
2022/08/21 01:07:12;;;;;;;9.73;8.30;;;18.40;99.90;;;;;;5069309;28;20280;-67
2022/08/21 01:09:38;;;;;;;11.33;9.00;;;18.30;99.90;;;;;;5070939;28;20188;-67
2022/08/21 01:12:05;;;;;;;9.00;8.30;;;18.30;99.90;;;;;;5068919;28;20296;-67
2022/08/21 01:14:31;;;;;;;10.13;8.80;;;18.30;99.90;;;;;;5070831;28;20176;-68
2022/08/21 01:16:57;;;;;;;9.20;8.40;;;18.30;99.90;;;;;;5068814;28;20185;-67
2022/08/21 01:19:24;;;;;;;8.93;7.93;;;18.30;99.90;;;;;;5071017;28;20271;-67
2022/08/21 01:21:50;;;;;;;9.13;8.33;;;18.20;99.90;;;;;;5069152;28;20228;-67
2022/08/21 01:24:15;;;;;;;9.50;8.00;;;18.20;99.90;;;;;;5070641;28;20221;-67
2022/08/21 01:26:42;;;;;;;9.60;8.13;;;18.20;99.90;;;;;;5070721;28;20225;-68
2022/08/21 01:29:35;;;;;;;8.83;7.93;;;18.20;99.90;;;;;;5068513;28;20551;-67
2022/08/21 01:32:13;;;;;;;9.33;8.50;;;18.10;99.90;;;;;;5050479;28;20222;-68
2022/08/21 01:34:43;;;;;;;8.53;7.83;;;18.10;99.90;;;;;;5070846;28;20242;-68
2022/08/21 01:37:09;;;;;;;9.03;7.93;;;18.10;99.90;;;;;;5048702;28;20213;-69
2022/08/21 01:39:36;;;;;;;13.07;8.60;;;18.10;99.90;;;;;;5050560;28;20263;-68
2022/08/21 01:42:02;;;;;;;8.40;7.67;;;18.10;99.90;;;;;;5068087;28;20195;-68
2022/08/21 01:44:28;;;;;;;11.70;8.03;;;18.00;99.90;;;;;;5070304;28;20846;-68
2022/08/21 01:46:55;;;;;;;8.93;7.83;;;18.00;99.90;;;;;;5067085;28;20294;-68
2022/08/21 01:49:20;;;;;;;10.30;8.17;;;18.00;99.90;;;;;;5069968;28;20242;-68
2022/08/21 01:51:46;;;;;;;7.17;6.57;;;17.90;99.90;;;;;;5050924;28;20204;-69
2022/08/21 01:54:11;;;;;;;10.43;7.20;;;17.90;99.90;;;;;;5048686;28;20190;-68
2022/08/21 01:56:39;;;;;;;6.83;6.23;;;17.90;99.90;;;;;;5069271;28;20642;-68
2022/08/21 01:59:06;;;;;;;6.70;6.00;;;17.90;99.90;;;;;;5066545;28;20211;-68
2022/08/21 02:01:31;;;;;;;6.27;5.77;;;17.80;99.90;;;;;;5070010;28;20205;-68
2022/08/21 02:03:57;;;;;;;6.47;5.80;;;17.80;99.90;;;;;;5065436;28;20204;-68
2022/08/21 02:06:22;;;;;;;6.33;5.50;;;17.80;99.90;;;;;;5070089;28;20221;-67
2022/08/21 02:08:50;;;;;;;7.63;5.20;;;17.80;99.90;;;;;;5064368;28;20207;-72
2022/08/21 02:11:16;;;;;;;7.87;5.77;;;17.80;99.90;;;;;;5069710;28;20249;-70
2022/08/21 02:13:41;;;;;;;5.60;5.00;;;17.70;99.90;;;;;;5063126;28;20196;-71
2022/08/21 02:16:07;;;;;;;6.17;5.67;;;17.70;99.90;;;;;;5066185;28;20245;-68
2022/08/21 02:18:33;;;;;;;6.57;5.27;;;17.70;99.90;;;;;;5067331;28;20260;-68
2022/08/21 02:21:01;;;;;;;8.40;6.00;;;17.70;99.90;;;;;;5069815;28;20193;-68
2022/08/21 02:23:27;;;;;;;9.47;5.47;;;17.60;99.90;;;;;;5060064;28;20278;-69
2022/08/21 02:26:03;;;;;;;9.13;5.60;;;17.60;99.90;;;;;;5069399;28;20212;-69
2022/08/21 02:28:29;;;;;;;8.90;6.20;;;17.60;99.90;;;;;;5059924;28;20203;-68
2022/08/21 02:30:56;;;;;;;6.93;5.40;;;17.60;99.90;;;;;;5050001;28;20629;-68
2022/08/21 02:33:22;;;;;;;6.73;5.00;;;17.50;99.90;;;;;;5066798;28;20268;-67
2022/08/21 02:35:50;;;;;;;7.10;5.30;;;17.50;99.90;;;;;;5069399;28;20706;-67
2022/08/21 02:38:20;;;;;;;6.63;5.10;;;17.50;99.90;;;;;;5047976;28;20285;-67
2022/08/21 02:40:47;;;;;;;5.20;4.33;;;17.50;99.90;;;;;;5069304;28;20265;-68
2022/08/21 02:43:15;;;;;;;6.77;5.00;;;17.40;99.90;;;;;;5047827;28;20200;-68
2022/08/21 02:45:41;;;;;;;8.60;5.43;;;17.40;99.90;;;;;;5068749;28;20275;-68
2022/08/21 02:48:10;;;;;;;5.63;5.13;;;17.40;99.90;;;;;;5048034;28;20236;-68
2022/08/21 02:50:41;;;;;;;6.50;5.30;;;17.40;99.90;;;;;;5068755;28;20207;-68
2022/08/21 02:53:09;;;;;;;5.57;5.07;;;17.30;99.90;;;;;;5055686;28;20220;-68
2022/08/21 02:55:36;;;;;;;5.50;5.00;;;17.30;99.90;;;;;;5049171;28;20191;-70
2022/08/21 02:58:04;;;;;;;5.33;4.73;;;17.30;99.90;;;;;;5064720;28;20195;-70
2022/08/21 03:00:31;;;;;;;6.00;4.17;;;17.30;99.90;;;;;;5068777;28;20641;-70
2022/08/21 03:02:57;;;;;;;6.60;4.67;;;17.20;99.90;;;;;;5058539;28;20206;-69
2022/08/21 03:05:24;;;;;;;5.37;4.30;;;17.30;99.90;;;;;;5067470;28;20188;-68
2022/08/21 03:07:50;;;;;;;7.40;4.40;;;17.20;99.90;;;;;;5065477;28;20230;-67
2022/08/21 03:10:16;;;;;;;5.30;4.80;;;17.20;99.90;;;;;;5067631;28;20278;-68
2022/08/21 03:12:41;;;;;;;4.67;4.27;;;17.20;99.90;;;;;;5066509;28;20621;-68
2022/08/21 03:15:14;;;;;;;9.17;4.60;;;17.20;99.90;;;;;;5069712;28;20203;-68
2022/08/21 03:17:40;;;;;;;5.17;4.17;;;17.10;99.90;;;;;;5051221;28;20281;-68
2022/08/21 03:20:08;;;;;;;6.30;3.77;;;17.10;99.90;;;;;;5069248;28;20265;-68
2022/08/21 03:22:33;;;;;;;5.40;3.83;;;17.00;99.90;;;;;;5047558;28;20346;-69
2022/08/21 03:24:59;;;;;;;8.83;4.23;;;17.10;99.90;;;;;;5054919;28;20701;-68
2022/08/21 03:27:26;;;;;;;5.37;3.80;;;17.00;99.90;;;;;;5066947;28;20256;-68
2022/08/21 03:29:52;;;;;;;4.93;3.73;;;17.00;99.90;;;;;;5068914;28;20638;-68
2022/08/21 03:32:17;;;;;;;6.63;3.97;;;17.00;99.90;;;;;;5066505;28;20211;-68
2022/08/21 03:34:43;;;;;;;4.80;3.93;;;17.00;99.90;;;;;;5068817;28;20183;-68
2022/08/21 03:37:09;;;;;;;6.07;4.00;;;17.00;99.90;;;;;;5068560;28;20184;-68
2022/08/21 03:39:35;;;;;;;8.30;4.07;;;17.00;99.90;;;;;;5066543;28;20708;-68
2022/08/21 03:42:00;;;;;;;5.70;4.07;;;16.90;99.90;;;;;;5067302;28;20205;-68
2022/08/21 03:44:30;;;;;;;7.07;3.77;;;16.90;99.90;;;;;;5065637;28;20196;-67
2022/08/21 03:46:57;;;;;;;6.27;3.80;;;16.90;99.90;;;;;;5068317;28;20194;-67
2022/08/21 03:49:23;;;;;;;4.07;3.67;;;16.80;99.90;;;;;;5064100;28;20271;-69
2022/08/21 03:51:48;;;;;;;5.43;3.77;;;16.80;99.90;;;;;;5049097;28;20608;-69
2022/08/21 03:54:14;;;;;;;4.33;3.27;;;16.80;99.90;;;;;;5049847;28;20257;-68
2022/08/21 03:56:39;;;;;;;5.23;3.67;;;16.80;99.90;;;;;;5067681;28;20187;-69
2022/08/21 03:59:05;;;;;;;6.53;3.77;;;16.80;99.90;;;;;;5061876;28;20191;-69
2022/08/21 04:01:31;;;;;;;5.57;3.67;;;16.80;99.90;;;;;;5068425;28;20192;-69
2022/08/21 04:03:57;;;;;;;4.57;3.90;;;16.70;99.90;;;;;;5060559;28;20206;-68
2022/08/21 04:06:22;;;;;;;6.47;3.50;;;16.70;99.90;;;;;;5068267;28;20679;-69
2022/08/21 04:08:48;;;;;;;7.90;3.30;;;16.70;99.90;;;;;;5058998;28;20666;-69
2022/08/21 04:11:14;;;;;;;5.87;3.53;;;16.60;99.90;;;;;;5067596;28;20657;-68
2022/08/21 04:13:40;;;;;;;6.67;3.47;;;16.60;99.90;;;;;;5046600;28;20199;-68
2022/08/21 04:16:06;;;;;;;6.03;3.30;;;16.60;99.90;;;;;;5067534;28;20222;-68
2022/08/21 04:18:32;;;;;;;4.83;3.03;;;16.60;99.90;;;;;;5046778;28;20218;-67
2022/08/21 04:20:59;;;;;;;4.20;3.57;;;16.60;99.90;;;;;;5067306;28;20661;-67
2022/08/21 04:23:25;;;;;;;8.40;3.53;;;16.60;99.90;;;;;;5046547;28;20211;-68
2022/08/21 04:25:52;;;;;;;6.63;3.17;;;16.60;99.90;;;;;;5067223;28;20196;-67
2022/08/21 04:28:17;;;;;;;4.27;3.50;;;16.70;99.90;;;;;;5046405;28;20192;-68
2022/08/21 04:30:44;;;;;;;3.57;3.23;;;16.60;99.90;;;;;;5048159;28;20475;-68
2022/08/21 04:33:09;;;;;;;5.70;3.40;;;16.60;99.90;;;;;;5065256;28;20202;-68
2022/08/21 04:35:35;;;;;;;4.93;3.47;;;16.60;99.90;;;;;;5067812;28;20320;-68
2022/08/21 04:38:00;;;;;;;5.57;3.60;;;16.60;99.90;;;;;;5065826;28;20278;-68
2022/08/21 04:40:27;;;;;;;3.97;3.63;;;16.70;99.90;;;;;;5067959;28;20175;-68
2022/08/21 04:43:08;;;;;;;4.47;3.40;;;16.70;99.90;;;;;;5065925;28;20289;-68
2022/08/21 04:45:37;;;;;;;3.57;3.17;;;16.70;99.90;;;;;;5068113;28;20178;-66
2022/08/21 04:48:05;;;;;;;6.10;3.43;;;16.70;99.90;;;;;;5065952;28;20276;-67
2022/08/21 04:50:38;;;;;;;5.67;3.10;;;16.80;99.90;;;;;;5067808;28;20284;-66
2022/08/21 04:53:11;;;;;;;7.03;3.63;;;16.80;99.90;;;;;;5050637;28;20220;-67
2022/08/21 04:55:37;;;;;;;3.43;3.10;;;16.80;99.90;;;;;;5067620;28;20171;-66
2022/08/21 04:58:06;;;;;;;4.53;3.43;;;16.90;99.90;;;;;;5046507;28;20277;-67
2022/08/21 05:00:32;;;;;;;6.33;3.53;;;16.90;99.90;;;;;;5047637;28;20646;-66
2022/08/21 05:02:59;;;;;;;7.80;3.10;;;16.90;99.90;;;;;;5065000;28;20241;-66
2022/08/21 05:05:27;;;;;;;4.53;3.37;;;16.90;99.90;;;;;;5067697;28;20179;-66
2022/08/21 05:07:53;;;;;;;7.97;3.83;;;17.00;99.90;;;;;;5065617;28;20245;-66
2022/08/21 05:10:19;;;;;;;4.33;3.20;;;17.00;99.90;;;;;;5067915;28;20189;-67
2022/08/21 05:12:45;;;;;;;3.30;2.50;;;17.00;99.90;;;;;;5065592;28;20209;-67
2022/08/21 05:15:12;;;;;;;4.97;3.23;;;17.00;99.90;;;;;;5067770;28;20571;-67
2022/08/21 05:17:38;;;;;;;4.57;2.97;;;17.00;99.90;;;;;;5065454;28;20175;-67
2022/08/21 05:20:04;;;;;;;4.30;2.50;;;17.10;99.90;;;;;;5067733;28;20258;-66
2022/08/21 05:22:30;;;;;;;4.47;3.27;;;17.10;99.90;;;;;;5069663;28;20195;-67
2022/08/21 05:24:56;;;;;;;4.83;2.73;;;17.10;99.90;;;;;;5068656;28;20191;-67
2022/08/21 05:27:22;;;;;;;4.83;3.17;;;17.20;99.90;;;;;;5071241;28;20171;-66
2022/08/21 05:29:47;;;;;;;4.73;2.73;;;17.20;99.90;;;;;;5067875;28;20204;-67
2022/08/21 05:32:14;;;;;;;6.37;2.80;;;17.20;99.90;;;;;;5070985;28;20206;-68
2022/08/21 05:34:39;;;;;;;5.10;2.90;;;17.20;99.90;;;;;;5066270;28;20203;-68
2022/08/21 05:37:05;;;;;;;5.30;2.83;;;17.30;99.90;;;;;;5070950;28;20570;-68
2022/08/21 05:39:31;;;;;;;6.27;2.83;;;17.30;99.90;;;;;;5064785;28;20220;-68
2022/08/21 05:41:57;;;;;;;3.93;2.70;;;17.30;99.90;;;;;;5070609;28;20277;-68
2022/08/21 05:44:22;;;;;;;6.30;3.40;;;17.30;99.90;;;;;;5063754;28;20191;-69
2022/08/21 05:46:48;;;;;;;5.57;2.77;;;17.40;99.90;;;;;;5070603;28;20714;-68
2022/08/21 05:49:13;;;;;;;5.47;2.57;;;17.40;99.90;;;;;;5062288;28;20646;-68
2022/08/21 05:51:40;;;;;;;3.93;3.50;;;17.40;99.90;;;;;;5070533;28;20219;-68
2022/08/21 05:54:06;;;;;;;6.37;2.83;;;17.50;99.90;;;;;;5060775;28;20287;-68
2022/08/21 05:56:32;;;;;;;3.60;2.63;;;17.50;99.90;;;;;;5070394;28;20279;-68
2022/08/21 05:58:57;;;;;;;4.90;2.27;;;17.60;99.90;;;;;;5049005;28;20367;-68
2022/08/21 06:01:23;;;;;;;4.70;2.37;;;17.60;99.90;;;;;;5069834;28;20187;-67
2022/08/21 06:03:49;;;;;;;6.03;2.97;;;17.60;99.90;;;;;;5049017;28;20944;-68
2022/08/21 06:06:15;;;;;;;5.07;3.00;;;17.60;99.90;;;;;;5069521;28;20193;-68
2022/08/21 06:08:40;;;;;;;3.97;2.80;;;17.60;99.90;;;;;;5049065;28;20505;-67
2022/08/21 06:11:07;;;;;;;4.23;2.63;;;17.60;99.90;;;;;;5069602;28;20645;-68
2022/08/21 06:13:33;;;;;;;6.67;2.90;;;17.60;99.90;;;;;;5048891;28;20216;-68
2022/08/21 06:16:02;;;;;;;4.10;2.83;;;17.60;99.90;;;;;;5050560;28;20173;-68
2022/08/21 06:18:27;;;;;;;6.83;3.13;;;17.60;99.90;;;;;;5067446;28;20200;-71
2022/08/21 06:20:53;;;;;;;5.13;2.73;;;17.60;99.90;;;;;;5070266;28;20182;-70
2022/08/21 06:23:18;;;;;;;4.23;2.90;;;17.70;99.90;;;;;;5067738;28;20294;-70
2022/08/21 06:25:44;;;;;;;3.80;2.70;;;17.80;99.90;;;;;;5066822;28;20194;-68
2022/08/21 06:28:10;;;;;;;3.93;2.53;;;17.90;99.90;;;;;;5065077;28;20635;-68
2022/08/21 06:30:37;;;;;;;3.90;2.73;;;17.90;99.90;;;;;;5066706;28;20680;-67
2022/08/21 06:33:03;;;;;;;6.20;2.40;;;18.00;99.90;;;;;;5062313;28;20216;-68
2022/08/21 06:35:29;;;;;;;4.33;2.80;;;18.10;99.90;;;;;;5049979;28;20547;-68
2022/08/21 06:37:56;;;;;;;11.73;2.40;;;18.10;99.90;;;;;;5066672;28;20240;-66
2022/08/21 06:40:21;;;;;;;6.23;2.80;;;18.20;99.90;;;;;;5069797;28;20261;-67
2022/08/21 06:42:47;;;;;;;6.57;2.80;;;18.30;99.90;;;;;;5069387;28;20283;-67
2022/08/21 06:45:13;;;;;;;6.07;3.03;;;18.40;99.90;;;;;;5067262;28;20257;-67
2022/08/21 06:47:38;;;;;;;8.00;2.70;;;18.40;99.90;;;;;;5069150;28;20203;-68
2022/08/21 06:50:07;;;;;;;5.43;3.00;;;18.40;99.90;;;;;;5065899;28;20686;-67
2022/08/21 06:52:33;;;;;;;6.80;2.60;;;18.50;99.90;;;;;;5069216;28;20315;-68
2022/08/21 06:54:58;;;;;;;2.93;2.50;;;18.60;99.90;;;;;;5065249;28;20626;-68
2022/08/21 06:57:25;;;;;;;4.73;2.43;;;18.70;99.90;;;;;;5069161;28;20208;-68
2022/08/21 06:59:50;;;;;;;12.27;2.93;;;18.80;99.90;;;;;;5063520;28;20673;-68
2022/08/21 07:02:16;;;;;;;8.50;2.63;;;18.80;99.90;;;;;;5068941;28;20197;-68
2022/08/21 07:04:42;;;;;;;4.03;2.40;;;18.80;99.90;;;;;;5061957;28;20195;-68
2022/08/21 07:07:07;;;;;;;5.03;2.47;;;19.00;99.90;;;;;;5069043;28;20188;-69
2022/08/21 07:09:32;;;;;;;4.87;2.10;;;19.00;99.90;;;;;;5060988;28;20254;-69
2022/08/21 07:11:58;;;;;;;3.97;2.60;;;19.20;99.90;;;;;;5068617;28;20295;-68
2022/08/21 07:14:25;;;;;;;3.40;2.20;;;19.20;99.90;;;;;;5059270;28;20203;-68
2022/08/21 07:16:51;;;;;;;8.17;2.83;;;19.30;99.90;;;;;;5068763;28;20285;-68
2022/08/21 07:19:16;;;;;;;4.10;2.20;;;19.50;99.90;;;;;;5047371;28;20202;-67
2022/08/21 07:21:42;;;;;;;4.50;2.17;;;19.60;99.90;;;;;;5067920;28;20388;-68
2022/08/21 07:24:08;;;;;;;3.93;2.20;;;19.70;99.90;;;;;;5047464;28;20561;-67
2022/08/21 07:26:34;;;;;;;6.00;1.93;;;19.90;99.90;;;;;;5067792;28;20327;-69
2022/08/21 07:29:00;;;;;;;4.53;1.83;;;20.00;99.90;;;;;;5047684;28;20288;-68
2022/08/21 07:31:26;;;;;;;7.53;2.23;;;20.20;99.90;;;;;;5067936;28;20672;-69
2022/08/21 07:33:52;;;;;;;4.33;2.00;;;20.30;99.90;;;;;;5047317;28;20259;-67
2022/08/21 07:36:18;;;;;;;4.40;2.27;;;20.40;99.90;;;;;;5048683;28;20201;-67
2022/08/21 07:38:43;;;;;;;4.77;2.17;;;20.50;99.90;;;;;;5065967;28;20205;-67
2022/08/21 07:41:16;;;;;;;4.57;2.23;;;20.60;99.90;;;;;;5068806;28;20178;-67
2022/08/21 07:43:42;;;;;;;5.00;2.40;;;20.70;99.90;;;;;;5051766;28;20228;-68
2022/08/21 07:46:07;;;;;;;5.60;2.40;;;20.80;99.90;;;;;;5067989;28;20210;-68
2022/08/21 07:48:33;;;;;;;3.57;1.87;;;20.70;99.90;;;;;;5047041;28;20219;-67
2022/08/21 07:51:02;;;;;;;5.50;2.10;;;20.70;99.90;;;;;;5048727;28;20182;-68
2022/08/21 07:53:27;;;;;;;2.07;1.87;;;20.70;99.90;;;;;;5066319;28;20262;-67
2022/08/21 07:55:56;;;;;;;6.37;2.53;;;20.80;99.90;;;;;;5068566;28;20174;-70
2022/08/21 07:58:21;;;;;;;7.53;2.37;;;20.80;99.90;;;;;;5066440;28;20585;-70
2022/08/21 08:00:47;;;;;;;3.77;2.00;;;21.00;99.90;;;;;;5068334;28;20182;-70
2022/08/21 08:03:15;;;;;;;3.80;2.27;;;21.00;99.90;;;;;;5064824;28;20230;-72
2022/08/21 08:05:41;;;;;;;4.00;2.27;;;21.10;99.90;;;;;;5066955;28;20178;-70
2022/08/21 08:08:07;;;;;;;8.50;2.10;;;21.10;99.90;;;;;;5065259;28;20334;-72
2022/08/21 08:10:32;;;;;;;4.30;2.43;;;21.10;99.90;;;;;;5062867;28;20497;-72
2022/08/21 08:12:58;;;;;;;4.40;2.30;;;21.20;99.90;;;;;;5067003;28;20766;-70
2022/08/21 08:15:26;;;;;;;5.03;1.87;;;21.10;99.90;;;;;;5064479;28;20183;-71
2022/08/21 08:17:52;;;;;;;6.17;1.73;;;21.20;99.90;;;;;;5064497;28;20280;-71
2022/08/21 08:20:18;;;;;;;5.87;2.37;;;21.30;99.90;;;;;;5065497;28;20683;-71
2022/08/21 08:22:44;;;;;;;4.87;2.03;;;21.30;99.90;;;;;;5064970;28;20186;-71
2022/08/21 08:25:12;;;;;;;4.33;2.03;;;21.30;99.90;;;;;;5064122;28;20558;-71
2022/08/21 08:27:37;;;;;;;5.00;2.30;;;21.40;99.90;;;;;;5064883;28;20193;-72
2022/08/21 08:30:04;;;;;;;8.17;2.43;;;21.40;99.90;;;;;;5064075;28;20190;-72
2022/08/21 08:32:30;;;;;;;4.80;2.43;;;21.50;99.90;;;;;;5064436;28;20655;-74
2022/08/21 08:34:55;;;;;;;8.80;2.47;;;21.60;99.90;;;;;;5064893;28;20268;-75
2022/08/21 08:37:21;;;;;;;6.17;2.40;;;21.70;99.90;;;;;;5067308;28;20178;-70
2022/08/21 08:39:47;;;;;;;9.10;2.30;;;21.80;99.90;;;;;;5058841;28;20197;-70
2022/08/21 08:42:15;;;;;;;6.20;4.10;;;21.80;99.90;;;;;;5048331;28;20554;-70
2022/08/21 08:44:42;;;;;;;3.63;2.20;;;21.90;99.90;;;;;;5065657;28;20210;-69
2022/08/21 08:47:11;;;;;;;3.27;2.20;;;21.90;99.90;;;;;;5067853;28;20197;-69
2022/08/21 08:49:49;;;;;;;5.43;3.00;;;22.00;99.90;;;;;;5046441;28;20308;-69
2022/08/21 08:52:28;;;;;;;4.30;2.13;;;22.20;99.90;;;;;;5047127;28;20214;-70
2022/08/21 08:55:08;;;;;;;5.47;2.20;;;22.20;99.90;;;;;;5058427;28;20213;-70
2022/08/21 08:57:35;;;;;;;4.50;2.30;;;22.30;99.90;;;;;;5049996;28;20705;-70
2022/08/21 09:00:06;;;;;;;4.13;2.33;;;22.30;99.90;;;;;;5068867;28;20190;-70
2022/08/21 09:02:33;;;;;;;6.03;2.50;;;22.40;99.90;;;;;;5055261;28;20174;-71
2022/08/21 09:04:59;;;;;;;5.33;2.43;;;22.50;99.90;;;;;;5068393;28;20226;-73
2022/08/21 09:07:28;;;;;;;8.43;2.57;;;22.50;99.90;;;;;;5068335;28;20185;-71
2022/08/21 09:10:16;;;;;;;2.27;1.97;;;22.60;99.90;;;;;;5067721;28;20191;-70
2022/08/21 09:12:52;;;;;;;6.78;2.13;;;22.70;99.90;;;;;;5069964;28;20213;-70
2022/08/21 09:15:54;;;;;;;4.00;1.77;;;22.80;99.90;;;;;;5067581;28;20186;-71
2022/08/21 09:18:46;;;;;;;4.50;2.40;;;22.80;99.90;;;;;;5068977;28;20205;-73
2022/08/21 09:21:20;;;;;;;3.35;2.08;;;23.00;99.70;;;;;;5069761;28;20185;-72
2022/08/21 09:24:02;;;;;;;7.63;2.53;;;23.00;99.90;;;;;;5067549;28;20636;-71
2022/08/21 09:26:38;;;;;;;4.57;2.40;;;23.00;99.50;;;;;;5068932;28;20182;-72
2022/08/21 09:29:06;;;;;;;5.67;2.40;;;23.00;99.00;;;;;;5066105;28;20209;-71
2022/08/21 09:31:37;;;;;;;4.67;1.97;;;23.10;99.30;;;;;;5070158;28;20648;-72
2022/08/21 09:34:06;;;;;;;4.10;2.07;;;23.20;98.30;;;;;;5068452;28;20193;-71
2022/08/21 09:36:48;;;;;;;6.18;2.80;;;23.20;97.00;;;;;;5071019;28;20174;-71
2022/08/21 09:39:25;;;;;;;3.53;2.23;;;23.30;98.10;;;;;;5048731;28;20187;-73
2022/08/21 09:42:04;;;;;;;6.95;2.70;;;23.30;96.90;;;;;;5050576;28;20248;-69
2022/08/21 09:44:39;;;;;;;5.97;2.43;;;23.40;96.70;;;;;;5057097;28;20213;-66
2022/08/21 09:47:05;;;;;;;4.05;2.20;;;23.30;98.30;;;;;;5050683;28;20194;-67
2022/08/21 09:49:34;;;;;;;5.05;2.38;;;23.30;96.40;;;;;;5065037;28;20226;-66
2022/08/21 09:52:02;;;;;;;6.78;2.40;;;23.40;99.70;;;;;;5049906;28;20211;-65
2022/08/21 09:54:34;;;;;;;4.28;2.35;;;23.40;98.10;;;;;;5067820;28;20192;-66
2022/08/21 10:00:17;;;;;;;4.50;2.28;;;23.60;99.90;;;;;;5058036;28;20206;-65
2022/08/21 10:02:43;;;;;;;6.90;2.50;;;23.90;99.90;;;;;;5050187;28;20610;-66
2022/08/21 10:05:17;;;;;;;5.32;2.45;;;24.00;97.70;;;;;;5067023;28;20220;-68
2022/08/21 10:07:43;;;;;;;4.55;2.30;;;23.60;95.50;;;;;;5068047;28;20286;-67
2022/08/21 10:10:17;;;;;;;4.72;2.35;;;23.50;95.80;;;;;;5065114;28;20349;-67
2022/08/21 10:13:11;;;;;;;4.97;2.90;;;23.40;95.90;;;;;;5049818;28;20245;-67
2022/08/21 10:16:01;;;;;;;5.05;2.55;;;23.60;97.20;;;;;;5064251;28;20750;-67
2022/08/21 10:18:37;;;;;;;2.85;2.20;;;23.90;97.10;;;;;;5050280;28;20203;-66
2022/08/21 10:21:30;;;;;;;4.18;2.17;;;24.10;97.80;;;;;;5067529;28;20198;-75
2022/08/21 10:24:16;;;;;;;4.55;1.90;;;24.40;98.60;;;;;;5048731;28;20270;-71
2022/08/21 10:26:54;;;;;;;3.53;1.50;;;24.20;93.90;;;;;;5068345;28;20186;-67
2022/08/21 10:29:52;;;;;;;5.70;1.63;;;23.80;95.60;;;;;;5053768;28;20231;-66
2022/08/21 10:32:37;;;;;;;3.43;1.80;;;23.90;96.20;;;;;;5032341;28;20222;-65
2022/08/21 10:35:16;;;;;;;2.22;1.55;;;23.60;94.40;;;;;;5059356;28;20194;-70
2022/08/21 10:38:15;;;;;;;2.38;1.30;;;23.60;94.80;;;;;;5049806;28;20580;-67
2022/08/21 10:40:50;;;;;;;3.13;1.40;;;23.60;91.70;;;;;;5062266;28;20199;-66
2022/08/21 10:43:32;;;;;;;2.53;1.35;;;23.40;91.20;;;;;;5069970;28;20220;-67
2022/08/21 10:46:14;;;;;;;2.80;1.35;;;23.40;90.30;;;;;;5066190;28;20226;-67
2022/08/21 10:48:50;;;;;;;2.85;1.38;;;23.60;95.10;;;;;;5048917;28;20215;-67
2022/08/21 10:51:32;;;;;;;0.95;0.95;;;23.70;92.10;;;;;;5057965;28;20393;-66
2022/08/21 10:54:23;;;;;;;1.53;1.40;;;23.70;90.10;;;;;;5066498;28;20648;-71
2022/08/21 10:56:56;;;;;;;2.65;1.50;;;23.80;86.70;;;;;;5068462;28;20236;-71
2022/08/21 10:59:43;;;;;;;1.67;1.17;;;24.00;90.30;;;;;;5065713;28;20887;-70
2022/08/21 11:02:20;;;;;;;5.38;1.58;;;24.10;86.00;;;;;;5068315;28;20181;-72
2022/08/21 11:05:11;;;;;;;2.80;1.13;;;24.20;90.50;;;;;;5063870;28;20229;-71
2022/08/21 11:07:56;;;;;;;3.10;1.55;;;24.50;90.90;;;;;;5066812;28;20277;-69
2022/08/21 11:10:49;;;;;;;4.53;1.70;;;25.00;93.00;;;;;;5063680;28;20199;-70
2022/08/21 11:13:24;;;;;;;3.83;1.33;;;25.00;82.30;;;;;;5066658;28;20214;-69
2022/08/21 11:16:23;;;;;;;1.00;0.88;;;25.00;85.10;;;;;;5066729;28;20192;-69
2022/08/21 11:19:01;;;;;;;2.95;1.40;;;25.30;84.40;;;;;;5049258;28;20182;-69
2022/08/21 11:22:15;;;;;;;2.42;1.30;;;25.70;87.30;;;;;;5048751;28;20260;-69
2022/08/21 11:25:06;;;;;;;1.23;0.93;;;25.80;86.50;;;;;;5045347;28;20710;-70
2022/08/21 11:28:01;;;;;;;2.28;1.40;;;25.50;74.90;;;;;;5067850;28;20186;-68
2022/08/21 11:30:38;;;;;;;2.85;1.60;;;25.60;80.00;;;;;;5065848;28;20199;-68
2022/08/21 11:33:41;;;;;;;3.53;1.17;;;25.70;78.60;;;;;;5067766;28;20223;-70
2022/08/21 11:36:13;;;;;;;2.20;0.98;;;26.00;72.50;;;;;;5064021;28;20549;-69
2022/08/21 11:38:51;;;;;;;2.10;0.98;;;25.90;71.80;;;;;;5048380;28;20190;-69
2022/08/21 11:41:46;;;;;;;1.73;1.02;;;26.10;77.50;;;;;;5066156;28;20196;-69
2022/08/21 11:44:20;;;;;;;0.95;0.93;;;26.10;70.10;;;;;;5048821;28;20204;-68
2022/08/21 11:47:12;;;;;;;2.20;1.27;;;26.10;71.50;;;;;;5063953;28;20207;-72
2022/08/21 11:50:06;;;;;;;2.58;1.08;;;26.10;72.70;;;;;;5051447;28;20714;-68
2022/08/21 11:52:40;;;;;;;3.13;1.70;;;25.90;64.60;;;;;;5047019;28;20242;-69
2022/08/21 11:55:18;;;;;;;1.67;1.40;;;25.90;66.40;;;;;;5052350;28;20195;-69
2022/08/21 11:58:15;;;;;;;1.10;1.00;;;26.00;65.20;;;;;;5047823;28;20283;-69
2022/08/21 12:00:46;;;;;;;3.42;1.25;;;26.20;67.90;;;;;;5059453;28;20201;-68
2022/08/21 12:03:15;;;;;;;1.45;1.30;;;26.50;74.80;;;;;;5051565;28;20175;-69
2022/08/21 12:05:51;;;;;;;3.92;1.40;;;26.70;79.20;;;;;;5050995;28;20680;-70
2022/08/21 12:08:30;;;;;;;3.38;1.30;;;27.00;78.40;;;;;;5059815;28;20187;-69
2022/08/21 12:11:09;;;;;;;1.77;1.05;;;27.10;68.90;;;;;;5065354;28;20212;-68
2022/08/21 12:13:40;;;;;;;3.72;1.55;;;27.10;66.60;;;;;;5067564;28;20240;-68
2022/08/21 12:16:13;;;;;;;3.53;1.48;;;27.30;71.10;;;;;;5059940;28;20200;-69
2022/08/21 12:18:39;;;;;;;2.72;1.55;;;27.60;68.70;;;;;;5067228;28;20178;-69
2022/08/21 12:21:26;;;;;;;2.35;1.17;;;27.90;70.40;;;;;;5055415;28;20197;-70
2022/08/21 12:24:18;;;;;;;2.60;2.00;;;28.10;79.60;;;;;;5063437;28;20217;-71
2022/08/21 12:26:52;;;;;;;1.75;1.35;;;28.50;70.90;;;;;;5064681;28;20185;-68
2022/08/21 12:29:31;;;;;;;2.35;1.42;;;29.00;71.60;;;;;;5062470;28;20193;-72
2022/08/21 12:32:05;;;;;;;2.13;1.20;;;29.40;71.80;;;;;;5063617;28;20209;-73
2022/08/21 12:34:38;;;;;;;1.10;1.10;;;29.90;69.90;;;;;;5065972;28;20277;-66
2022/08/21 12:37:11;;;;;;;3.22;1.20;;;30.20;63.40;;;;;;5063661;28;20616;-68
2022/08/21 12:39:42;;;;;;;2.05;1.25;;;30.30;60.30;;;;;;5069237;28;20751;-66
2022/08/21 12:42:18;;;;;;;2.22;1.40;;;30.70;58.60;;;;;;5070750;28;20185;-68
2022/08/21 12:44:55;;;;;;;2.80;1.58;;;30.80;57.40;;;;;;5068963;28;20271;-71
2022/08/21 12:47:30;;;;;;;3.28;1.70;;;30.30;55.40;;;;;;5069664;28;20201;-70
2022/08/21 12:50:02;;;;;;;1.55;1.10;;;30.30;56.70;;;;;;5066844;28;20225;-70
2022/08/21 12:52:48;;;;;;;3.08;1.60;;;30.80;59.30;;;;;;5069516;28;20198;-71
2022/08/21 12:55:24;;;;;;;3.97;1.55;;;31.30;55.10;;;;;;5058638;28;20279;-70
2022/08/21 12:57:50;;;;;;;2.50;1.25;;;31.30;53.60;;;;;;5069502;28;20269;-71
2022/08/21 13:00:21;;;;;;;1.77;1.42;;;32.00;55.20;;;;;;5065842;28;20327;-70
2022/08/21 13:02:49;;;;;;;2.35;1.50;;;32.90;56.30;;;;;;5069232;28;20190;-70
2022/08/21 13:05:25;;;;;;;2.03;1.50;;;33.70;53.90;;;;;;5063617;28;20190;-70